Time;durP1;ratioP1;P1;durP2;ratioP2;P2;SDS_P1;SDS_P2;PMS_P1;PMS_P2;Temp;Humidity;BMP_temperature;BMP_pressure;BME280_temperature;BME280_humidity;BME280_pressure;Samples;Min_cycle;Max_cycle;Signal;HPM_P1;HPM_P2
2024/04/17 00:00:33;;;;;;;0.25;0.17;;;5.70;87.40;;;;;;4777843;29;20050;-76
2024/04/17 00:02:59;;;;;;;0.30;0.30;;;5.50;87.30;;;;;;4792902;29;20102;-76
2024/04/17 00:05:25;;;;;;;0.30;0.30;;;5.50;87.30;;;;;;4792970;29;20453;-76
2024/04/17 00:07:51;;;;;;;0.45;0.30;;;5.50;87.30;;;;;;4841774;29;20065;-76
2024/04/17 00:10:16;;;;;;;0.20;0.20;;;5.50;87.30;;;;;;4829373;29;20530;-76
2024/04/17 00:12:42;;;;;;;0.63;0.32;;;5.50;87.40;;;;;;4844982;29;20557;-76
2024/04/17 00:15:08;;;;;;;0.25;0.20;;;5.40;87.20;;;;;;4843354;29;20106;-76
2024/04/17 00:17:33;;;;;;;0.32;0.30;;;5.40;87.30;;;;;;4860832;29;20049;-76
2024/04/17 00:19:59;;;;;;;0.52;0.30;;;5.40;87.40;;;;;;4860805;29;20065;-76
2024/04/17 00:22:25;;;;;;;1.83;0.40;;;5.40;87.40;;;;;;4861172;29;20076;-76
2024/04/17 00:24:50;;;;;;;0.20;0.20;;;5.40;87.40;;;;;;4844195;29;20157;-76
2024/04/17 00:27:16;;;;;;;0.28;0.20;;;5.30;87.50;;;;;;4843414;29;20508;-76
2024/04/17 00:30:10;;;;;;;0.40;0.30;;;5.30;87.40;;;;;;4844603;29;20052;-76
2024/04/17 00:32:37;;;;;;;1.27;0.40;;;5.30;87.40;;;;;;4847051;29;20576;-76
2024/04/17 00:35:04;;;;;;;0.20;0.20;;;5.20;87.40;;;;;;4828119;29;20038;-76
2024/04/17 00:37:29;;;;;;;0.38;0.30;;;5.20;87.50;;;;;;4860985;29;20041;-76
2024/04/17 00:39:55;;;;;;;0.88;0.40;;;5.10;87.50;;;;;;4844482;29;20148;-76
2024/04/17 00:42:21;;;;;;;0.77;0.30;;;5.10;87.60;;;;;;4859668;29;20049;-76
2024/04/17 00:44:46;;;;;;;0.47;0.25;;;5.10;87.60;;;;;;4860604;29;20056;-76
2024/04/17 00:47:12;;;;;;;0.45;0.35;;;5.10;87.60;;;;;;4844537;29;20105;-76
2024/04/17 00:49:38;;;;;;;0.22;0.22;;;5.10;87.50;;;;;;4860892;29;20042;-76
2024/04/17 00:52:05;;;;;;;0.25;0.25;;;5.10;87.60;;;;;;4844072;29;20048;-76
2024/04/17 00:54:34;;;;;;;0.98;0.30;;;5.10;87.60;;;;;;4860695;29;20404;-76
2024/04/17 00:56:59;;;;;;;0.30;0.30;;;5.00;87.50;;;;;;4844209;29;20045;-76
2024/04/17 00:59:25;;;;;;;0.38;0.20;;;5.00;87.60;;;;;;4843905;29;20073;-76
2024/04/17 01:01:51;;;;;;;0.32;0.30;;;5.00;87.60;;;;;;4861127;29;20038;-76
2024/04/17 01:04:16;;;;;;;0.30;0.30;;;4.90;87.60;;;;;;4844047;29;20198;-76
2024/04/17 01:06:43;;;;;;;0.63;0.30;;;5.00;87.60;;;;;;4860981;29;20054;-76
2024/04/17 01:09:08;;;;;;;0.77;0.30;;;4.90;87.60;;;;;;4843941;29;20417;-76
2024/04/17 01:11:39;;;;;;;0.38;0.25;;;4.80;87.60;;;;;;4827801;29;20060;-76
2024/04/17 01:14:04;;;;;;;0.55;0.10;;;4.80;87.70;;;;;;4828872;29;20501;-76
2024/04/17 01:16:31;;;;;;;0.45;0.40;;;4.90;87.70;;;;;;4861137;29;20042;-76
2024/04/17 01:18:57;;;;;;;1.55;0.43;;;4.90;88.40;;;;;;4843654;29;20050;-76
2024/04/17 01:21:23;;;;;;;0.63;0.40;;;4.80;87.70;;;;;;4860438;29;20096;-76
2024/04/17 01:23:53;;;;;;;0.30;0.30;;;4.80;87.70;;;;;;4860479;29;20488;-76
2024/04/17 01:26:19;;;;;;;0.32;0.20;;;4.80;87.70;;;;;;4844289;29;20056;-76
2024/04/17 01:28:46;;;;;;;0.22;0.22;;;4.80;87.80;;;;;;4842264;29;20050;-76
2024/04/17 01:31:12;;;;;;;0.20;0.20;;;4.80;87.80;;;;;;4843912;29;20053;-76
2024/04/17 01:33:38;;;;;;;0.20;0.20;;;4.80;87.70;;;;;;4860349;29;20120;-76
2024/04/17 01:36:05;;;;;;;1.55;0.30;;;4.70;87.70;;;;;;4842610;29;20078;-76
2024/04/17 01:38:32;;;;;;;0.30;0.30;;;4.70;87.70;;;;;;4843585;29;20113;-76
2024/04/17 01:40:58;;;;;;;0.20;0.20;;;4.70;87.70;;;;;;4828168;29;20045;-76
2024/04/17 01:43:25;;;;;;;0.30;0.30;;;4.70;87.70;;;;;;4842814;29;20090;-76
2024/04/17 01:45:51;;;;;;;0.10;0.10;;;4.70;87.70;;;;;;4843979;29;20515;-76
2024/04/17 01:48:18;;;;;;;1.00;0.30;;;4.70;87.70;;;;;;4860198;29;20415;-76
2024/04/17 01:50:44;;;;;;;0.57;0.45;;;4.70;87.70;;;;;;4843570;29;20077;-76
2024/04/17 01:53:10;;;;;;;1.25;0.45;;;4.70;87.70;;;;;;4843009;29;20042;-76
2024/04/17 01:55:35;;;;;;;1.55;0.30;;;4.60;87.70;;;;;;4828401;29;20052;-76
2024/04/17 01:58:01;;;;;;;0.30;0.13;;;4.70;87.80;;;;;;4843215;29;20046;-76
2024/04/17 02:00:27;;;;;;;0.68;0.30;;;4.60;87.70;;;;;;4842789;29;20045;-76
2024/04/17 02:02:53;;;;;;;0.60;0.30;;;4.60;87.70;;;;;;4843506;29;20061;-76
2024/04/17 02:05:19;;;;;;;0.32;0.28;;;4.50;87.70;;;;;;4859954;29;20139;-75
2024/04/17 02:07:46;;;;;;;0.70;0.40;;;4.50;87.70;;;;;;4860095;29;20044;-76
2024/04/17 02:10:13;;;;;;;0.35;0.20;;;4.50;87.80;;;;;;4827386;29;20145;-76
2024/04/17 02:12:40;;;;;;;0.40;0.28;;;4.50;88.50;;;;;;4843333;29;20124;-76
2024/04/17 02:15:06;;;;;;;0.35;0.32;;;4.60;87.90;;;;;;4843087;29;20049;-76
2024/04/17 02:17:32;;;;;;;0.38;0.38;;;4.60;87.90;;;;;;4828001;29;20046;-76
2024/04/17 02:19:58;;;;;;;0.30;0.30;;;4.60;87.80;;;;;;4842881;29;20053;-76
2024/04/17 02:22:23;;;;;;;0.52;0.40;;;4.50;87.80;;;;;;4859618;29;20041;-76
2024/04/17 02:24:49;;;;;;;0.55;0.32;;;4.60;87.80;;;;;;4843536;29;20050;-76
2024/04/17 02:27:15;;;;;;;0.30;0.20;;;4.60;87.80;;;;;;4859940;29;20046;-76
2024/04/17 02:29:41;;;;;;;0.40;0.30;;;4.70;87.80;;;;;;4859592;29;20077;-76
2024/04/17 02:32:07;;;;;;;0.30;0.30;;;4.60;87.70;;;;;;4842938;29;20046;-76
2024/04/17 02:34:33;;;;;;;0.77;0.30;;;4.60;87.70;;;;;;4859362;29;20045;-76
2024/04/17 02:36:58;;;;;;;1.02;0.20;;;4.70;87.70;;;;;;4842837;29;20045;-76
2024/04/17 02:39:24;;;;;;;0.40;0.20;;;4.70;87.70;;;;;;4859374;29;20508;-76
2024/04/17 02:41:52;;;;;;;0.10;0.10;;;4.70;87.70;;;;;;4859587;29;20048;-76
2024/04/17 02:44:18;;;;;;;0.40;0.40;;;4.80;87.60;;;;;;4843423;29;20045;-76
2024/04/17 02:46:51;;;;;;;0.38;0.20;;;4.80;87.60;;;;;;4842930;29;20122;-76
2024/04/17 02:49:17;;;;;;;0.43;0.40;;;4.80;87.50;;;;;;4859211;29;20109;-75
2024/04/17 02:51:43;;;;;;;0.20;0.20;;;4.80;87.50;;;;;;4842924;29;20132;-77
2024/04/17 02:54:09;;;;;;;0.10;0.10;;;4.90;87.50;;;;;;4842603;29;20049;-76
2024/04/17 02:56:35;;;;;;;0.47;0.30;;;4.90;87.40;;;;;;4827205;29;20400;-76
2024/04/17 02:59:00;;;;;;;0.43;0.30;;;4.90;87.30;;;;;;4842474;29;20045;-76
2024/04/17 03:01:26;;;;;;;0.52;0.52;;;5.00;87.30;;;;;;4842497;29;20052;-76
2024/04/17 03:03:52;;;;;;;0.80;0.35;;;5.00;87.30;;;;;;4842115;29;20117;-76
2024/04/17 03:06:18;;;;;;;0.28;0.20;;;5.10;87.30;;;;;;4859228;29;20046;-76
2024/04/17 03:08:46;;;;;;;0.50;0.20;;;5.10;87.20;;;;;;4841095;29;20048;-76
2024/04/17 03:11:11;;;;;;;0.30;0.20;;;5.10;87.20;;;;;;4827349;29;20500;-76
2024/04/17 03:13:37;;;;;;;0.20;0.20;;;5.20;87.20;;;;;;4858832;29;20080;-76
2024/04/17 03:16:03;;;;;;;0.17;0.17;;;5.20;87.20;;;;;;4859227;29;20049;-76
2024/04/17 03:18:29;;;;;;;0.60;0.40;;;5.30;87.20;;;;;;4859046;29;20049;-76
2024/04/17 03:20:59;;;;;;;0.20;0.20;;;5.30;87.20;;;;;;4859181;29;20045;-76
2024/04/17 03:23:25;;;;;;;0.38;0.30;;;5.30;87.20;;;;;;4858840;29;20045;-76
2024/04/17 03:25:59;;;;;;;0.32;0.30;;;5.30;87.20;;;;;;4859133;29;20129;-76
2024/04/17 03:28:24;;;;;;;0.20;0.20;;;5.30;87.20;;;;;;4827020;29;20065;-76
2024/04/17 03:30:50;;;;;;;0.20;0.20;;;5.40;87.10;;;;;;4858959;29;20056;-76
2024/04/17 03:33:16;;;;;;;0.73;0.30;;;5.40;87.10;;;;;;4842390;29;20041;-77
2024/04/17 03:35:42;;;;;;;0.35;0.32;;;5.40;87.10;;;;;;4841958;29;20050;-75
2024/04/17 03:38:08;;;;;;;0.45;0.20;;;5.40;87.20;;;;;;4859214;29;20156;-76
2024/04/17 03:40:34;;;;;;;0.38;0.30;;;5.50;87.20;;;;;;4859001;29;20041;-76
2024/04/17 03:42:59;;;;;;;0.45;0.20;;;5.50;87.20;;;;;;4859043;29;20426;-76
2024/04/17 03:45:25;;;;;;;0.40;0.20;;;5.50;87.10;;;;;;4842195;29;20381;-76
2024/04/17 03:47:50;;;;;;;0.45;0.20;;;5.40;87.00;;;;;;4858455;29;20054;-76
2024/04/17 03:50:16;;;;;;;0.20;0.20;;;5.50;87.10;;;;;;4842157;29;20082;-77
2024/04/17 03:52:42;;;;;;;0.20;0.20;;;5.60;87.20;;;;;;4841873;29;20042;-76
2024/04/17 03:55:08;;;;;;;0.20;0.20;;;5.60;87.20;;;;;;4842008;29;20049;-77
2024/04/17 03:57:33;;;;;;;0.40;0.20;;;5.70;87.20;;;;;;4842065;29;20133;-76
2024/04/17 03:59:59;;;;;;;0.73;0.30;;;5.70;87.20;;;;;;4825274;29;20049;-76
2024/04/17 04:02:25;;;;;;;0.22;0.20;;;5.70;87.20;;;;;;4841570;29;20061;-76
2024/04/17 04:04:51;;;;;;;0.10;0.10;;;5.80;87.20;;;;;;4841947;29;20137;-76
2024/04/17 04:07:17;;;;;;;0.40;0.25;;;5.80;87.20;;;;;;4859034;29;20041;-77
2024/04/17 04:09:43;;;;;;;0.43;0.20;;;5.80;87.20;;;;;;4841654;29;20049;-77
2024/04/17 04:12:08;;;;;;;0.35;0.32;;;5.80;87.30;;;;;;4858859;29;20052;-77
2024/04/17 04:14:34;;;;;;;0.35;0.20;;;5.80;87.30;;;;;;4826687;29;20500;-77
2024/04/17 04:17:00;;;;;;;0.20;0.20;;;5.90;87.30;;;;;;4861397;29;20120;-77
2024/04/17 04:19:25;;;;;;;0.22;0.20;;;5.80;87.30;;;;;;4861757;29;20109;-77
2024/04/17 04:21:55;;;;;;;0.22;0.22;;;5.90;87.30;;;;;;4844963;29;20369;-77
2024/04/17 04:24:20;;;;;;;0.20;0.20;;;5.90;87.40;;;;;;4861609;29;20068;-77
2024/04/17 04:26:46;;;;;;;0.38;0.25;;;5.90;87.40;;;;;;4862014;29;20476;-78
2024/04/17 04:29:12;;;;;;;0.40;0.17;;;6.00;87.40;;;;;;4829301;29;20136;-78
2024/04/17 04:31:37;;;;;;;0.15;0.15;;;6.00;87.40;;;;;;4844778;29;20077;-77
2024/04/17 04:34:03;;;;;;;0.10;0.10;;;6.00;87.40;;;;;;4844764;29;20129;-77
2024/04/17 04:36:29;;;;;;;0.30;0.20;;;6.10;87.50;;;;;;4844766;29;20568;-77
2024/04/17 04:38:54;;;;;;;0.45;0.20;;;6.00;87.50;;;;;;4844730;29;20450;-77
2024/04/17 04:41:20;;;;;;;0.10;0.10;;;6.00;87.40;;;;;;4861265;29;20084;-77
2024/04/17 04:43:50;;;;;;;0.20;0.20;;;6.00;87.50;;;;;;4844389;29;20088;-77
2024/04/17 04:46:16;;;;;;;1.10;0.25;;;6.10;87.60;;;;;;4861450;29;20072;-77
2024/04/17 04:48:42;;;;;;;0.30;0.30;;;6.10;87.60;;;;;;4861113;29;20076;-77
2024/04/17 04:51:08;;;;;;;0.30;0.30;;;6.10;87.60;;;;;;4861142;29;20072;-76
2024/04/17 04:53:33;;;;;;;0.20;0.20;;;6.10;87.60;;;;;;4861230;29;20041;-76
2024/04/17 04:56:07;;;;;;;0.88;0.20;;;6.10;87.70;;;;;;4844585;29;20105;-76
2024/04/17 04:58:33;;;;;;;0.43;0.20;;;6.10;87.80;;;;;;4844297;29;20477;-76
2024/04/17 05:00:59;;;;;;;0.20;0.20;;;6.20;87.80;;;;;;4860888;29;20053;-76
2024/04/17 05:03:24;;;;;;;1.05;0.25;;;6.20;87.70;;;;;;4844813;29;20098;-76
2024/04/17 05:05:50;;;;;;;0.15;0.15;;;6.20;87.80;;;;;;4861177;29;20527;-76
2024/04/17 05:08:16;;;;;;;0.20;0.20;;;6.20;87.80;;;;;;4860444;29;20053;-77
2024/04/17 05:10:42;;;;;;;0.20;0.20;;;6.20;87.90;;;;;;4828987;29;20041;-77
2024/04/17 05:13:08;;;;;;;0.95;0.30;;;6.20;87.80;;;;;;4844752;29;20560;-76
2024/04/17 05:15:34;;;;;;;0.20;0.20;;;6.20;87.80;;;;;;4860712;29;20073;-76
2024/04/17 05:17:59;;;;;;;0.32;0.32;;;6.30;87.90;;;;;;4829323;29;20041;-76
2024/04/17 05:20:26;;;;;;;0.30;0.30;;;6.30;87.90;;;;;;4844296;29;20048;-76
2024/04/17 05:22:52;;;;;;;0.32;0.30;;;6.30;87.90;;;;;;4860822;29;20048;-76
2024/04/17 05:25:20;;;;;;;0.10;0.10;;;6.30;87.90;;;;;;4860642;29;20062;-77
2024/04/17 05:27:47;;;;;;;0.28;0.20;;;6.40;88.00;;;;;;4855403;29;20054;-76
2024/04/17 05:30:12;;;;;;;0.30;0.30;;;6.40;88.00;;;;;;4881199;29;20058;-76
2024/04/17 05:32:38;;;;;;;0.63;0.20;;;6.40;88.00;;;;;;4849591;29;20025;-76
2024/04/17 05:35:04;;;;;;;0.30;0.30;;;6.40;88.00;;;;;;4883456;29;20033;-76
2024/04/17 05:37:31;;;;;;;0.32;0.30;;;6.40;88.00;;;;;;4882817;29;20073;-76
2024/04/17 05:39:57;;;;;;;0.43;0.25;;;6.40;88.10;;;;;;4850591;29;20041;-76
2024/04/17 05:42:23;;;;;;;0.40;0.20;;;6.40;88.10;;;;;;4833134;29;20046;-77
2024/04/17 05:44:49;;;;;;;0.17;0.17;;;6.30;88.10;;;;;;4860456;29;20104;-76
2024/04/17 05:47:17;;;;;;;0.20;0.20;;;6.30;88.20;;;;;;4842911;29;20065;-77
2024/04/17 05:49:45;;;;;;;0.20;0.10;;;6.30;88.30;;;;;;4865036;29;20076;-76
2024/04/17 05:52:11;;;;;;;0.20;0.20;;;6.30;88.40;;;;;;4868968;29;20485;-76
2024/04/17 05:54:37;;;;;;;0.10;0.10;;;6.30;88.40;;;;;;4828414;29;20052;-76
2024/04/17 05:57:02;;;;;;;0.20;0.20;;;6.40;88.40;;;;;;4828225;29;20037;-76
2024/04/17 05:59:28;;;;;;;0.10;0.10;;;6.40;88.40;;;;;;4828621;29;20508;-76
2024/04/17 06:01:57;;;;;;;0.20;0.20;;;6.40;88.40;;;;;;4860460;29;20052;-76
2024/04/17 06:04:23;;;;;;;0.13;0.13;;;6.50;88.40;;;;;;4828791;29;20058;-77
2024/04/17 06:06:48;;;;;;;0.10;0.10;;;6.50;88.40;;;;;;4828118;29;20041;-75
2024/04/17 06:09:14;;;;;;;0.20;0.20;;;6.50;88.30;;;;;;4828327;29;20464;-77
2024/04/17 06:11:39;;;;;;;0.20;0.20;;;6.50;88.30;;;;;;4843500;29;20046;-75
2024/04/17 06:14:05;;;;;;;0.63;0.40;;;6.50;88.40;;;;;;4860030;29;20069;-75
2024/04/17 06:16:31;;;;;;;0.20;0.20;;;6.60;88.40;;;;;;4860550;29;20037;-76
2024/04/17 06:18:57;;;;;;;0.10;0.10;;;6.50;88.30;;;;;;4828117;29;20533;-75
2024/04/17 06:21:22;;;;;;;0.25;0.17;;;6.60;88.30;;;;;;4859747;29;20053;-75
2024/04/17 06:23:48;;;;;;;0.15;0.10;;;6.50;88.20;;;;;;4859972;29;20105;-75
2024/04/17 06:26:14;;;;;;;0.10;0.10;;;6.60;88.20;;;;;;4826479;29;20038;-75
2024/04/17 06:28:40;;;;;;;0.10;0.10;;;6.60;88.30;;;;;;4843033;29;20046;-76
2024/04/17 06:31:05;;;;;;;0.25;0.10;;;6.60;88.30;;;;;;4843178;29;20057;-75
2024/04/17 06:33:32;;;;;;;0.10;0.10;;;6.50;88.40;;;;;;4859881;29;20516;-75
2024/04/17 06:35:59;;;;;;;0.10;0.10;;;6.50;88.40;;;;;;4859520;29;20049;-76
2024/04/17 06:38:25;;;;;;;0.10;0.10;;;6.50;88.50;;;;;;4842508;29;20057;-75
2024/04/17 06:40:51;;;;;;;0.10;0.10;;;6.50;88.60;;;;;;4859140;29;20080;-75
2024/04/17 06:43:17;;;;;;;0.20;0.20;;;6.50;88.60;;;;;;4843149;29;20097;-76
2024/04/17 06:45:46;;;;;;;0.10;0.10;;;6.50;88.70;;;;;;4859992;29;20054;-76
2024/04/17 06:48:13;;;;;;;0.32;0.10;;;6.50;88.70;;;;;;4859423;29;20052;-76
2024/04/17 06:50:45;;;;;;;0.10;0.10;;;6.60;88.70;;;;;;4843715;29;20170;-76
2024/04/17 06:53:11;;;;;;;0.10;0.10;;;6.50;88.60;;;;;;4827107;29;20642;-77
2024/04/17 06:55:38;;;;;;;0.20;0.20;;;6.60;88.70;;;;;;4843384;29;20088;-76
2024/04/17 06:58:31;;;;;;;0.15;0.10;;;6.60;88.60;;;;;;4843067;29;20471;-76
2024/04/17 07:00:57;;;;;;;0.20;0.20;;;6.70;88.60;;;;;;4842707;29;20054;-76
2024/04/17 07:03:23;;;;;;;0.22;0.20;;;6.70;88.50;;;;;;4858898;29;20089;-76
2024/04/17 07:05:49;;;;;;;0.20;0.20;;;6.70;88.40;;;;;;4859666;29;20489;-76
2024/04/17 07:08:18;;;;;;;0.40;0.13;;;6.80;88.40;;;;;;4826757;29;20453;-77
2024/04/17 08:08:06;;;;;;;1.67;0.20;;;8.20;86.40;;;;;;4693093;30;20489;-77
2024/04/17 08:23:00;;;;;;;0.77;0.30;;;9.00;84.90;;;;;;4501593;31;20496;-75
2024/04/17 09:29:48;;;;;;;0.30;0.20;;;11.10;81.50;;;;;;4693838;30;20189;-74
2024/04/17 11:10:51;;;;;;;0.20;0.20;;;9.70;82.80;;;;;;4838240;29;20436;-73
2024/04/17 11:16:48;;;;;;;0.10;0.10;;;9.90;82.40;;;;;;4776692;29;20440;-72
2024/04/17 11:19:14;;;;;;;0.10;0.10;;;9.90;82.40;;;;;;4784605;29;20278;-73
2024/04/17 11:21:43;;;;;;;0.10;0.10;;;10.00;82.40;;;;;;4768456;29;20084;-73
2024/04/17 11:24:17;;;;;;;0.10;0.10;;;10.10;82.30;;;;;;4768565;29;20079;-73
2024/04/17 11:26:44;;;;;;;0.20;0.20;;;10.20;82.00;;;;;;4801540;29;20388;-72
2024/04/17 11:29:16;;;;;;;0.10;0.10;;;10.30;81.80;;;;;;4786528;29;20062;-72
2024/04/17 11:31:43;;;;;;;0.10;0.10;;;10.30;81.70;;;;;;4801554;29;20126;-73
2024/04/17 11:34:19;;;;;;;0.20;0.20;;;10.50;81.80;;;;;;4801418;29;20054;-73
2024/04/17 11:36:47;;;;;;;0.25;0.20;;;10.60;81.50;;;;;;4802229;29;20096;-73
2024/04/17 11:39:12;;;;;;;0.30;0.20;;;10.70;81.40;;;;;;4801494;29;20051;-74
2024/04/17 11:41:39;;;;;;;0.25;0.20;;;10.80;81.30;;;;;;4787322;29;20050;-74
2024/04/17 11:44:04;;;;;;;0.10;0.10;;;10.90;81.00;;;;;;4809147;29;20053;-73
2024/04/17 11:46:34;;;;;;;0.63;0.20;;;10.90;80.90;;;;;;4808613;29;20048;-72
2024/04/17 11:48:59;;;;;;;0.20;0.20;;;10.90;81.00;;;;;;4791751;29;20867;-74
2024/04/17 11:51:25;;;;;;;0.82;0.28;;;11.00;80.90;;;;;;4839889;29;20053;-72
2024/04/17 11:53:50;;;;;;;0.10;0.10;;;10.90;80.80;;;;;;4839967;29;20038;-72
2024/04/17 11:56:19;;;;;;;0.25;0.20;;;10.80;80.80;;;;;;4823496;29;20417;-72
2024/04/17 11:58:46;;;;;;;0.13;0.13;;;10.70;81.00;;;;;;4839856;29;20046;-73
2024/04/17 12:01:12;;;;;;;0.30;0.28;;;10.70;81.30;;;;;;4817537;29;20053;-74
2024/04/17 12:03:38;;;;;;;0.30;0.20;;;10.60;81.30;;;;;;4807170;29;20046;-73
2024/04/17 12:06:04;;;;;;;0.20;0.20;;;10.60;81.30;;;;;;4839977;29;20042;-73
2024/04/17 12:08:29;;;;;;;0.20;0.20;;;10.60;81.40;;;;;;4839387;29;20520;-72
2024/04/17 12:10:55;;;;;;;0.28;0.20;;;10.40;81.30;;;;;;4839451;29;20042;-74
2024/04/17 12:13:21;;;;;;;0.57;0.30;;;10.00;81.50;;;;;;4823842;29;20469;-75
2024/04/17 12:15:47;;;;;;;0.32;0.32;;;9.60;82.10;;;;;;4807897;29;20141;-72
2024/04/17 12:18:13;;;;;;;0.30;0.30;;;9.30;82.70;;;;;;4839910;29;20046;-75
2024/04/17 12:20:42;;;;;;;0.20;0.20;;;8.80;83.40;;;;;;4806967;29;20513;-77
2024/04/17 12:23:18;;;;;;;0.20;0.20;;;8.30;84.10;;;;;;4793303;29;20133;-74
2024/04/17 12:28:29;;;;;;;0.28;0.28;;;7.50;85.40;;;;;;4839810;29;20416;-74
2024/04/17 12:30:57;;;;;;;0.30;0.30;;;7.20;86.00;;;;;;4807979;29;20121;-75
2024/04/17 12:37:50;;;;;;;0.93;0.30;;;6.70;86.80;;;;;;4763314;30;20431;-76
2024/04/17 12:40:48;;;;;;;0.20;0.15;;;6.40;87.10;;;;;;4755948;30;20055;-74
2024/04/17 12:43:43;;;;;;;0.17;0.17;;;6.20;87.30;;;;;;4755583;30;20139;-73
2024/04/17 12:46:09;;;;;;;0.28;0.28;;;6.10;87.30;;;;;;4755180;30;20131;-75
2024/04/17 12:48:35;;;;;;;0.15;0.15;;;6.00;87.40;;;;;;4768074;30;20498;-75
2024/04/17 12:51:01;;;;;;;0.10;0.10;;;5.90;87.30;;;;;;4769140;30;20429;-75
2024/04/17 12:53:26;;;;;;;0.10;0.10;;;5.90;87.40;;;;;;4768197;30;20046;-74
2024/04/17 12:55:57;;;;;;;0.63;0.20;;;5.90;87.40;;;;;;4753313;30;20032;-73
2024/04/17 12:58:23;;;;;;;0.15;0.15;;;5.70;87.40;;;;;;4769716;30;20032;-73
2024/04/17 13:00:49;;;;;;;0.30;0.30;;;5.60;87.40;;;;;;4752948;30;20058;-73
2024/04/17 13:03:15;;;;;;;0.28;0.22;;;5.70;87.40;;;;;;4752821;30;20096;-73
2024/04/17 13:05:41;;;;;;;0.20;0.20;;;5.60;87.40;;;;;;4738270;30;20441;-73
2024/04/17 13:08:07;;;;;;;0.20;0.20;;;5.60;87.40;;;;;;4767945;30;20044;-74
2024/04/17 13:10:36;;;;;;;0.13;0.13;;;5.60;87.30;;;;;;4753061;30;20064;-73
2024/04/17 13:13:01;;;;;;;0.17;0.17;;;5.70;87.20;;;;;;4818961;29;20054;-73
2024/04/17 13:15:27;;;;;;;1.33;0.30;;;5.70;87.00;;;;;;4842320;29;20098;-73
2024/04/17 13:17:53;;;;;;;0.20;0.20;;;5.80;86.90;;;;;;4841836;29;20397;-73
2024/04/17 13:20:19;;;;;;;0.20;0.20;;;5.90;86.90;;;;;;4842082;29;20050;-74
2024/04/17 13:22:44;;;;;;;0.10;0.10;;;6.00;86.60;;;;;;4841929;29;20042;-74
2024/04/17 13:25:10;;;;;;;0.10;0.10;;;6.10;86.50;;;;;;4810185;29;20050;-74
2024/04/17 13:27:36;;;;;;;0.75;0.20;;;6.20;86.80;;;;;;4842329;29;20091;-74
2024/04/17 13:30:03;;;;;;;0.10;0.10;;;6.30;86.10;;;;;;4825994;29;20046;-73
2024/04/17 13:32:29;;;;;;;0.20;0.20;;;6.30;86.00;;;;;;4795341;29;20501;-73
2024/04/17 13:35:29;;;;;;;0.20;0.20;;;6.40;86.00;;;;;;4842038;29;20058;-73
2024/04/17 13:37:55;;;;;;;0.10;0.10;;;6.60;85.90;;;;;;4811692;29;20424;-73
2024/04/17 13:40:21;;;;;;;0.20;0.20;;;6.80;86.00;;;;;;4825458;29;20044;-72
2024/04/17 13:42:46;;;;;;;0.20;0.20;;;6.90;85.30;;;;;;4841372;29;20054;-73
2024/04/17 13:45:12;;;;;;;0.10;0.10;;;7.00;85.00;;;;;;4825238;29;20038;-75
2024/04/17 13:47:38;;;;;;;0.20;0.20;;;7.10;84.90;;;;;;4824893;29;20084;-74
2024/04/17 13:50:03;;;;;;;0.20;0.20;;;7.20;84.80;;;;;;4825454;29;20050;-74
2024/04/17 13:52:31;;;;;;;0.13;0.13;;;7.30;84.60;;;;;;4825146;29;20048;-73
2024/04/17 13:54:58;;;;;;;0.10;0.10;;;7.30;84.60;;;;;;4825058;29;20155;-73
2024/04/17 13:57:23;;;;;;;0.10;0.10;;;7.30;84.60;;;;;;4825245;29;20087;-73
2024/04/17 13:59:49;;;;;;;0.10;0.10;;;7.30;84.80;;;;;;4841055;29;20046;-73
2024/04/17 14:02:15;;;;;;;0.10;0.10;;;7.50;84.70;;;;;;4824960;29;20042;-73
2024/04/17 14:04:40;;;;;;;0.10;0.10;;;7.50;84.70;;;;;;4841476;29;20494;-73
2024/04/17 14:07:06;;;;;;;0.15;0.15;;;7.60;84.60;;;;;;4825270;29;20077;-73
2024/04/17 14:09:32;;;;;;;0.10;0.10;;;7.60;84.60;;;;;;4841252;29;20046;-73
2024/04/17 14:11:58;;;;;;;0.10;0.10;;;7.70;84.60;;;;;;4841050;29;20405;-73
2024/04/17 14:14:24;;;;;;;0.10;0.10;;;7.80;84.40;;;;;;4809269;29;20034;-73
2024/04/17 14:16:50;;;;;;;0.17;0.17;;;7.80;84.40;;;;;;4841049;29;20042;-73
2024/04/17 14:19:19;;;;;;;0.10;0.10;;;7.70;84.50;;;;;;4787490;29;20111;-75
2024/04/17 14:21:48;;;;;;;0.22;0.22;;;7.70;84.70;;;;;;4787473;29;20053;-73
2024/04/17 14:24:13;;;;;;;0.17;0.10;;;7.70;84.70;;;;;;4803050;29;20050;-73
2024/04/17 14:26:42;;;;;;;0.10;0.10;;;7.70;84.70;;;;;;4802151;29;20046;-72
2024/04/17 14:29:08;;;;;;;0.10;0.10;;;7.80;84.80;;;;;;4787037;29;20078;-72
2024/04/17 14:31:33;;;;;;;0.10;0.10;;;7.80;84.80;;;;;;4787215;29;20161;-73
2024/04/17 14:33:59;;;;;;;0.17;0.17;;;7.80;84.80;;;;;;4802446;29;20458;-73
2024/04/17 14:36:27;;;;;;;0.10;0.10;;;7.80;84.90;;;;;;4802201;29;20055;-74
2024/04/17 14:38:53;;;;;;;0.20;0.20;;;7.90;84.80;;;;;;4802511;29;20039;-73
2024/04/17 14:41:19;;;;;;;0.20;0.20;;;7.90;84.80;;;;;;4802769;29;20521;-73
2024/04/17 14:43:44;;;;;;;0.15;0.15;;;8.00;84.70;;;;;;4802755;29;20039;-72
2024/04/17 14:46:10;;;;;;;0.13;0.13;;;7.90;84.60;;;;;;4787107;29;20078;-73
2024/04/17 14:48:38;;;;;;;0.15;0.15;;;7.90;84.50;;;;;;4786885;29;20478;-73
2024/04/17 14:51:06;;;;;;;0.30;0.30;;;8.00;84.60;;;;;;4806347;29;20439;-73
2024/04/17 14:53:32;;;;;;;0.30;0.30;;;8.00;84.60;;;;;;4794244;29;20045;-73
2024/04/17 14:56:01;;;;;;;0.20;0.20;;;8.00;84.60;;;;;;4824169;29;20042;-73
2024/04/17 14:58:27;;;;;;;0.20;0.20;;;7.90;84.40;;;;;;4840280;29;20053;-73
2024/04/17 15:00:53;;;;;;;0.10;0.10;;;7.90;84.40;;;;;;4823370;29;20042;-72
2024/04/17 15:03:19;;;;;;;0.20;0.20;;;7.90;84.60;;;;;;4824187;29;20042;-75
2024/04/17 15:05:46;;;;;;;0.20;0.20;;;7.90;84.60;;;;;;4823738;29;20046;-73
2024/04/17 15:08:12;;;;;;;0.28;0.20;;;8.00;84.70;;;;;;4823878;29;20038;-74
2024/04/17 15:10:37;;;;;;;1.17;0.22;;;8.00;84.60;;;;;;4823783;29;20140;-73
2024/04/17 15:13:03;;;;;;;0.10;0.10;;;8.20;84.60;;;;;;4824658;29;20045;-73
2024/04/17 15:15:29;;;;;;;0.10;0.10;;;8.10;84.50;;;;;;4824456;29;20042;-73
2024/04/17 15:17:54;;;;;;;0.28;0.28;;;8.10;84.30;;;;;;4840551;29;20033;-74
2024/04/17 15:20:20;;;;;;;0.10;0.10;;;8.10;84.30;;;;;;4840211;29;20046;-75
2024/04/17 15:22:46;;;;;;;0.20;0.20;;;8.10;84.30;;;;;;4839949;29;20544;-74
2024/04/17 15:25:12;;;;;;;0.32;0.20;;;8.10;84.20;;;;;;4823694;29;20049;-74
2024/04/17 15:27:38;;;;;;;0.60;0.45;;;8.20;84.20;;;;;;4840388;29;20042;-74
2024/04/17 15:30:05;;;;;;;0.10;0.10;;;8.20;84.10;;;;;;4840328;29;20129;-75
2024/04/17 15:32:32;;;;;;;0.20;0.20;;;8.10;84.10;;;;;;4825502;29;20127;-74
2024/04/17 15:34:58;;;;;;;0.20;0.20;;;8.10;84.30;;;;;;4842410;29;20044;-74
2024/04/17 15:37:24;;;;;;;0.30;0.30;;;8.10;84.30;;;;;;4808585;29;20042;-74
2024/04/17 15:39:49;;;;;;;0.28;0.28;;;8.00;84.30;;;;;;4840385;29;20050;-73
2024/04/17 15:42:15;;;;;;;0.45;0.43;;;8.00;84.30;;;;;;4839927;29;20398;-73
2024/04/17 15:44:40;;;;;;;0.30;0.30;;;8.00;84.90;;;;;;4840163;29;20045;-73
2024/04/17 15:47:06;;;;;;;0.40;0.40;;;8.20;84.40;;;;;;4839756;29;20042;-72
2024/04/17 15:49:32;;;;;;;0.20;0.20;;;8.10;84.30;;;;;;4839675;29;20046;-72
2024/04/17 15:51:58;;;;;;;0.30;0.30;;;8.10;84.20;;;;;;4823464;29;20099;-73
2024/04/17 15:54:24;;;;;;;0.20;0.20;;;8.10;84.30;;;;;;4840165;29;20166;-72
2024/04/17 15:56:50;;;;;;;0.30;0.30;;;8.10;84.30;;;;;;4808224;29;20034;-73
2024/04/17 15:59:15;;;;;;;0.32;0.30;;;8.20;84.30;;;;;;4823234;29;20442;-73
2024/04/17 16:01:45;;;;;;;0.20;0.20;;;8.20;84.20;;;;;;4840162;29;20058;-73
2024/04/17 16:04:11;;;;;;;0.20;0.20;;;8.20;84.20;;;;;;4824264;29;20500;-73
2024/04/17 16:06:38;;;;;;;0.10;0.10;;;8.10;84.10;;;;;;4823460;29;20046;-74
2024/04/17 16:09:03;;;;;;;0.28;0.28;;;8.10;84.10;;;;;;4839260;29;20061;-73
2024/04/17 16:11:29;;;;;;;0.35;0.35;;;8.10;84.20;;;;;;4840579;29;20371;-73
2024/04/17 16:13:54;;;;;;;0.30;0.30;;;8.10;84.20;;;;;;4842996;29;20030;-73
2024/04/17 16:16:21;;;;;;;0.20;0.20;;;8.10;84.40;;;;;;4826187;29;20106;-73
2024/04/17 16:18:47;;;;;;;0.30;0.30;;;8.10;84.40;;;;;;4811463;29;20046;-73
2024/04/17 16:21:14;;;;;;;0.17;0.17;;;8.10;84.40;;;;;;4842555;29;20367;-74
2024/04/17 16:23:40;;;;;;;0.30;0.30;;;8.10;84.30;;;;;;4811170;29;20049;-73
2024/04/17 16:26:11;;;;;;;0.20;0.20;;;8.10;84.40;;;;;;4842501;29;20073;-74
2024/04/17 16:28:36;;;;;;;0.17;0.17;;;8.00;84.40;;;;;;4826249;29;20157;-73
2024/04/17 16:31:11;;;;;;;0.30;0.30;;;8.00;84.60;;;;;;4826135;29;20102;-74
2024/04/17 16:33:37;;;;;;;0.30;0.30;;;8.00;84.60;;;;;;4795778;29;20879;-72
2024/04/17 16:36:03;;;;;;;0.40;0.40;;;8.00;84.50;;;;;;4842503;29;20443;-73
2024/04/17 16:38:30;;;;;;;0.52;0.30;;;8.00;84.60;;;;;;4842567;29;20370;-72
2024/04/17 16:40:56;;;;;;;0.30;0.30;;;7.90;84.60;;;;;;4810961;29;20113;-73
2024/04/17 16:43:22;;;;;;;0.57;0.30;;;7.90;84.50;;;;;;4825839;29;20126;-73
2024/04/17 16:45:47;;;;;;;0.30;0.30;;;7.90;84.60;;;;;;4825953;29;20374;-73
2024/04/17 16:48:13;;;;;;;0.30;0.30;;;7.90;84.60;;;;;;4795843;29;20483;-73
2024/04/17 16:50:39;;;;;;;0.20;0.20;;;8.00;84.70;;;;;;4795311;29;20053;-73
2024/04/17 16:53:08;;;;;;;0.30;0.30;;;7.90;84.60;;;;;;4825743;29;20042;-72
2024/04/17 16:55:34;;;;;;;0.40;0.30;;;7.80;84.60;;;;;;4795707;29;20034;-74